createdAt,value
2023-03-27T00:00:08.805Z,4.08
2023-03-27T00:05:10.494Z,4.00
2023-03-27T00:10:12.609Z,3.86
2023-03-27T00:15:18.255Z,3.75
2023-03-27T00:20:22.526Z,3.59
2023-03-27T00:25:26.700Z,3.53
2023-03-27T00:30:30.189Z,3.51
2023-03-27T00:35:32.369Z,3.33
2023-03-27T00:40:34.000Z,3.30
2023-03-27T00:45:37.908Z,3.23
2023-03-27T00:50:43.057Z,3.11
2023-03-27T00:55:48.938Z,3.01
2023-03-27T01:00:54.238Z,2.94
2023-03-27T01:05:57.765Z,2.93
2023-03-27T01:11:08.780Z,2.93
2023-03-27T01:16:27.996Z,2.86
2023-03-27T01:21:35.575Z,2.82
2023-03-27T01:26:43.137Z,2.81
2023-03-27T01:32:22.120Z,2.80
2023-03-27T01:37:42.536Z,2.81
2023-03-27T01:43:06.086Z,2.63
2023-03-27T01:48:21.287Z,2.66
2023-03-27T01:53:34.959Z,2.76
2023-03-27T01:58:46.375Z,2.77
2023-03-27T02:03:56.108Z,2.83
2023-03-27T02:08:59.664Z,2.78
2023-03-27T02:14:05.728Z,3.01
2023-03-27T02:19:14.977Z,3.07
2023-03-27T02:24:17.903Z,3.08
2023-03-27T02:29:28.541Z,3.11
2023-03-27T02:34:46.369Z,3.11
2023-03-27T02:40:00.678Z,3.25
2023-03-27T02:45:08.229Z,3.23
2023-03-27T02:50:16.433Z,3.30
2023-03-27T02:55:22.602Z,3.23
2023-03-27T03:00:29.414Z,3.09
2023-03-27T03:05:32.658Z,3.21
2023-03-27T03:10:34.382Z,3.10
2023-03-27T03:15:36.043Z,2.95
2023-03-27T03:20:38.175Z,2.86
2023-03-27T03:25:39.816Z,2.85
2023-03-27T03:30:45.621Z,2.71
2023-03-27T03:35:51.086Z,2.49
2023-03-27T03:40:57.720Z,2.53
2023-03-27T03:46:00.364Z,2.52
2023-03-27T03:51:02.136Z,2.41
2023-03-27T03:56:04.021Z,2.46
2023-03-27T04:01:05.675Z,2.40
2023-03-27T04:06:07.774Z,2.33
2023-03-27T04:11:09.413Z,2.23
2023-03-27T04:16:11.090Z,2.22
2023-03-27T04:21:15.865Z,2.22
2023-03-27T04:26:17.678Z,2.15
2023-03-27T04:31:19.418Z,2.16
2023-03-27T04:36:21.128Z,2.17
2023-03-27T04:41:22.760Z,2.20
2023-03-27T04:46:24.404Z,2.16
2023-03-27T04:51:26.744Z,2.13
2023-03-27T04:56:30.837Z,2.11
2023-03-27T05:01:33.963Z,2.00
2023-03-27T05:06:35.780Z,1.91
2023-03-27T05:11:37.402Z,1.83
2023-03-27T05:16:40.470Z,1.74
2023-03-27T05:21:42.654Z,1.78
2023-03-27T05:26:44.331Z,1.75
2023-03-27T05:31:45.952Z,1.80
2023-03-27T05:36:47.613Z,1.90
2023-03-27T05:41:49.224Z,1.90
2023-03-27T05:46:50.898Z,2.02
2023-03-27T05:51:52.745Z,2.00
2023-03-27T05:56:54.383Z,2.10
2023-03-27T06:01:58.511Z,2.27
2023-03-27T06:07:02.526Z,2.32
2023-03-27T06:12:04.268Z,2.42
2023-03-27T06:17:06.519Z,2.47
2023-03-27T06:22:08.142Z,2.31
2023-03-27T06:27:10.966Z,2.48
2023-03-27T06:32:12.692Z,2.49
2023-03-27T06:37:14.443Z,2.60
2023-03-27T06:42:16.203Z,2.53
2023-03-27T06:47:18.918Z,2.64
2023-03-27T06:52:20.547Z,2.68
2023-03-27T06:57:22.215Z,2.62
2023-03-27T07:02:24.078Z,2.77
2023-03-27T07:07:26.241Z,2.81
2023-03-27T07:12:27.890Z,2.92
2023-03-27T07:17:41.869Z,3.06
2023-03-27T07:22:50.356Z,3.10
2023-03-27T07:27:52.070Z,3.29
2023-03-27T07:32:54.217Z,3.37
2023-03-27T07:37:56.297Z,3.65
2023-03-27T07:42:57.887Z,3.88
2023-03-27T07:48:12.271Z,3.96
2023-03-27T07:53:33.450Z,4.42
2023-03-27T07:58:36.520Z,5.23
2023-03-27T08:03:39.601Z,5.60
2023-03-27T08:08:41.460Z,6.04
2023-03-27T08:13:43.097Z,6.21
2023-03-27T08:18:46.864Z,6.95
2023-03-27T08:23:48.812Z,7.63
2023-03-27T08:28:54.169Z,8.06
2023-03-27T08:33:56.157Z,7.03
2023-03-27T08:38:57.815Z,7.32
2023-03-27T08:44:03.860Z,7.58
2023-03-27T08:49:12.195Z,7.43
2023-03-27T08:54:25.535Z,6.89
2023-03-27T08:59:30.305Z,6.49
2023-03-27T09:04:31.949Z,7.03
2023-03-27T09:09:42.538Z,7.93
2023-03-27T09:14:48.647Z,7.75
2023-03-27T09:19:59.190Z,7.68
2023-03-27T09:25:08.438Z,7.86
2023-03-27T09:30:15.070Z,7.67
2023-03-27T09:35:20.417Z,8.63
2023-03-27T09:41:00.769Z,9.26
2023-03-27T09:46:03.358Z,8.60
2023-03-27T09:51:05.934Z,8.15
2023-03-27T09:56:14.488Z,8.83
2023-03-27T10:01:20.031Z,8.66
2023-03-27T10:06:39.623Z,9.09
2023-03-27T10:11:41.430Z,9.47
2023-03-27T10:16:46.154Z,9.04
2023-03-27T10:21:48.067Z,8.48
2023-03-27T10:26:52.948Z,8.13
2023-03-27T10:31:57.106Z,7.46
2023-03-27T10:37:01.850Z,6.79
2023-03-27T10:42:08.932Z,6.25
2023-03-27T10:47:23.962Z,6.23
2023-03-27T10:52:34.026Z,6.86
2023-03-27T10:57:37.327Z,6.93
2023-03-27T11:03:02.448Z,7.03
2023-03-27T11:08:12.288Z,7.07
2023-03-27T11:13:19.722Z,7.07
2023-03-27T11:18:25.010Z,7.00
2023-03-27T11:23:49.555Z,7.58
2023-03-27T11:28:57.665Z,7.08
2023-03-27T11:34:07.569Z,6.94
2023-03-27T11:39:15.449Z,6.66
2023-03-27T11:44:17.165Z,7.01
2023-03-27T11:49:30.872Z,7.08
2023-03-27T11:55:06.548Z,7.56
2023-03-27T12:00:25.601Z,7.55
2023-03-27T12:05:37.608Z,8.08
2023-03-27T12:10:44.016Z,7.79
2023-03-27T12:16:11.455Z,7.00
2023-03-27T12:21:13.746Z,6.94
2023-03-27T12:26:15.308Z,7.11
2023-03-27T12:31:23.658Z,7.75
2023-03-27T12:36:31.021Z,8.43
2023-03-27T12:41:37.681Z,8.96
2023-03-27T12:46:40.851Z,9.23
2023-03-27T12:52:04.422Z,8.50
2023-03-27T12:57:20.733Z,7.76
2023-03-27T13:02:34.641Z,7.29
2023-03-27T13:07:39.276Z,7.14
2023-03-27T13:12:59.518Z,7.22
2023-03-27T13:18:19.932Z,7.31
2023-03-27T13:23:33.081Z,7.65
2023-03-27T13:28:40.233Z,7.86
2023-03-27T13:34:08.533Z,7.95
2023-03-27T13:39:21.194Z,8.72
2023-03-27T13:44:35.543Z,8.80
2023-03-27T13:49:43.218Z,8.66
2023-03-27T13:55:06.042Z,7.85
2023-03-27T14:00:22.888Z,6.57
2023-03-27T14:05:48.191Z,6.40
2023-03-27T14:11:09.941Z,6.75
2023-03-27T14:16:28.199Z,6.86
2023-03-27T14:21:49.652Z,5.73
2023-03-27T14:26:53.871Z,5.22
2023-03-27T14:32:02.303Z,5.66
2023-03-27T14:37:31.118Z,6.28
2023-03-27T14:42:33.680Z,6.54
2023-03-27T14:47:36.193Z,6.42
2023-03-27T14:52:38.331Z,6.42
2023-03-27T14:57:41.358Z,6.39
2023-03-27T15:02:44.165Z,6.67
2023-03-27T15:07:49.014Z,6.92
2023-03-27T15:12:51.169Z,7.04
2023-03-27T15:17:55.060Z,7.62
2023-03-27T15:23:03.542Z,7.10
2023-03-27T15:28:10.803Z,6.38
2023-03-27T15:33:22.116Z,6.66
2023-03-27T15:38:29.058Z,6.80
2023-03-27T15:43:31.428Z,6.34
2023-03-27T15:48:40.716Z,6.29
2023-03-27T15:53:47.650Z,6.45
2023-03-27T15:58:55.660Z,6.44
2023-03-27T16:04:02.421Z,6.56
2023-03-27T16:09:21.410Z,6.65
2023-03-27T16:14:35.661Z,6.51
2023-03-27T16:19:58.313Z,6.61
2023-03-27T16:25:01.953Z,6.73
2023-03-27T16:30:06.800Z,6.56
2023-03-27T16:35:08.635Z,5.57
2023-03-27T16:40:11.543Z,5.17
2023-03-27T16:45:13.379Z,4.89
2023-03-27T16:50:20.398Z,4.72
2023-03-27T16:55:22.099Z,4.69
2023-03-27T17:00:23.908Z,4.51
2023-03-27T17:05:25.898Z,4.51
2023-03-27T17:10:29.054Z,4.51
2023-03-27T17:15:30.898Z,4.43
2023-03-27T17:20:32.719Z,4.20
2023-03-27T17:25:34.334Z,3.94
2023-03-27T17:30:41.033Z,3.87
2023-03-27T17:35:46.486Z,3.84
2023-03-27T17:40:48.126Z,3.74
2023-03-27T17:45:51.149Z,3.62
2023-03-27T17:51:07.497Z,3.59
2023-03-27T17:56:10.892Z,3.55
2023-03-27T18:01:15.787Z,3.49
2023-03-27T18:06:18.143Z,3.55
2023-03-27T18:11:19.861Z,3.49
2023-03-27T18:16:23.085Z,3.66
2023-03-27T18:21:24.940Z,3.74
2023-03-27T18:26:26.594Z,3.71
2023-03-27T18:31:28.289Z,3.65
2023-03-27T18:36:30.043Z,3.63
2023-03-27T18:41:31.677Z,3.52
2023-03-27T18:46:36.122Z,3.38
2023-03-27T18:51:37.887Z,3.16
2023-03-27T18:56:40.106Z,3.10
2023-03-27T19:01:41.738Z,2.97
2023-03-27T19:06:43.496Z,2.91
2023-03-27T19:11:45.128Z,2.93
2023-03-27T19:16:46.958Z,3.04
2023-03-27T19:21:49.587Z,2.89
2023-03-27T19:26:52.980Z,2.79
2023-03-27T19:31:54.748Z,2.74
2023-03-27T19:36:56.599Z,2.81
2023-03-27T19:41:58.595Z,2.73
2023-03-27T19:47:00.599Z,2.71
2023-03-27T19:52:02.675Z,2.62
2023-03-27T19:57:04.350Z,2.45
2023-03-27T20:02:06.756Z,2.32
2023-03-27T20:07:10.141Z,2.26
2023-03-27T20:12:12.559Z,2.25
2023-03-27T20:17:28.012Z,2.19
2023-03-27T20:22:31.233Z,2.29
2023-03-27T20:27:32.898Z,2.47
2023-03-27T20:32:38.945Z,2.55
2023-03-27T20:37:41.929Z,2.48
2023-03-27T20:42:47.137Z,2.40
2023-03-27T20:47:49.056Z,2.30
2023-03-27T20:52:50.852Z,2.25
2023-03-27T20:57:52.480Z,2.14
2023-03-27T21:02:54.195Z,2.08
2023-03-27T21:07:56.648Z,1.99
2023-03-27T21:12:58.926Z,1.93
2023-03-27T21:18:01.129Z,1.88
2023-03-27T21:23:02.980Z,1.84
2023-03-27T21:28:06.050Z,1.86
2023-03-27T21:33:08.132Z,1.87
2023-03-27T21:38:10.615Z,1.84
2023-03-27T21:43:13.201Z,1.82
2023-03-27T21:48:14.952Z,1.76
2023-03-27T21:53:19.529Z,1.81
2023-03-27T21:58:21.179Z,1.83
2023-03-27T22:03:23.587Z,1.82
2023-03-27T22:08:25.394Z,1.94
2023-03-27T22:13:27.526Z,1.93
2023-03-27T22:18:31.436Z,1.69
2023-03-27T22:23:33.102Z,1.65
2023-03-27T22:28:34.789Z,1.59
2023-03-27T22:33:37.438Z,1.62
2023-03-27T22:38:40.342Z,1.62
2023-03-27T22:43:42.342Z,1.59
2023-03-27T22:48:44.445Z,1.54
2023-03-27T22:53:46.473Z,1.50
2023-03-27T22:58:48.185Z,1.49
2023-03-27T23:03:49.880Z,1.38
2023-03-27T23:08:51.928Z,1.41
2023-03-27T23:13:53.566Z,1.42
2023-03-27T23:18:55.434Z,1.43
2023-03-27T23:23:57.203Z,1.32
2023-03-27T23:28:58.801Z,1.31
2023-03-27T23:34:00.483Z,1.29
2023-03-27T23:39:02.091Z,1.29
2023-03-27T23:44:03.741Z,1.32
2023-03-27T23:49:05.352Z,1.25
2023-03-27T23:54:06.959Z,1.22
2023-03-27T23:59:08.807Z,1.21
